ראשי / חיפושים אחרונים

חיפושים אחרונים

לוחית
סוג רכב
דגם
שנה
תאריך חיפוש
שעת חיפוש
92564201 אאודי גרמניה - 2019 29/08/2026 17:22:32
48139801 שברולט ארהב" - 2019 29/08/2026 17:22:31
66462701 סקודה צ'כיה OCTAVIA 2019 29/08/2026 17:22:31
75887003 הונדה תאילנד - 2025 29/08/2026 17:22:29
7070779 טויוטה צרפת YARIS 2012 29/08/2026 17:22:24
1130010 טויוטה יפן פראדו 2000 29/08/2026 17:22:23
26389603 אאודי הונגריה Q3 SPORTBACK 2023 29/08/2026 17:22:14
79057402 יונדאי קוריאה הדרומית SONATA 2022 29/08/2026 17:22:12
47503903 ימהה יפן - 2023 29/08/2026 17:22:12
7756824 יונדאי קוריאה הדרומית LANTRA 2000 29/08/2026 17:22:10
14510602 פיאג'ו איטליה - 2021 29/08/2026 17:22:09
3312030 ב מ וו גרמניה M240I 2017 29/08/2026 17:22:09
1532787 הונדה יפן JAZZ 2017 29/08/2026 17:22:05
6392554 מזדה יפן MAZDA 5 2014 29/08/2026 17:22:04
6450586 טויוטה טורקיה C-HR HYBRID 2017 29/08/2026 17:22:00
26543502 סאן יאנג טיואן - 2020 29/08/2026 17:21:59
92605801 טויוטה ב מ וו - 2020 29/08/2026 17:21:56
83375101 טויוטה טורקיה C-HR HYBRID 2019 29/08/2026 17:21:55
3756073 סוזוקי יפן GRAND VITARA 2010 29/08/2026 17:21:54
7951234 קוואסאקי יפן - 2016 29/08/2026 17:21:54
2796938 אאודי בלגיה A1 2016 29/08/2026 17:21:51
8311639 יונדאי צ'כיה TUCSON 2016 29/08/2026 17:21:51
12906604 עובדיה נגררים - 2025 29/08/2026 17:21:49
33355504 ב מ וו גרמניה M3 CS 2024 29/08/2026 17:21:49
7097452 דוקאטי איטליה - 2013 29/08/2026 17:21:49
66756301 סיאט ספרד LEON 2019 29/08/2026 17:21:45
58103602 ימהה צרפת - 2021 29/08/2026 17:21:39
47828201 איסוזו תאילנד PICK-UP 2019 29/08/2026 17:21:37
2893212 סיאט ספרד IBIZA FLOW 2013 29/08/2026 17:21:34
2796938 אאודי בלגיה A1 2016 29/08/2026 17:21:24
5794789 קוואסאקי תאילנ - 2018 29/08/2026 17:21:24
1379439 פיאט טורקיה QUBO 2016 29/08/2026 17:21:22
28775101 מ.ג סין ZS 2019 29/08/2026 17:21:22
5159989 ימהה צרפת - 2017 29/08/2026 17:21:19
1113362 טויוטה יפן LAND CRUISER 2007 29/08/2026 17:21:10
78844403 ימהה אינדונזיה - 2024 29/08/2026 17:21:09
30335503 וולבו בלגיה XC40 B4 2024 29/08/2026 17:21:06
33355504 ב מ וו גרמניה M3 CS 2024 29/08/2026 17:21:05
66059103 סוזוקי הונגריה S-CROSS 2024 29/08/2026 17:21:04
60736302 ג'יפ ארהב" GRAND CHEROKEE 2021 29/08/2026 17:21:04
5752987 וולבו שבדיה - 2019 29/08/2026 17:21:03
2658839 יוטונג סין - 2016 29/08/2026 17:21:02
5752987 וולבו שבדיה - 2019 29/08/2026 17:21:01
1215862 טויוטה יפן COROLLA 2007 29/08/2026 17:20:59
49599103 סקודה צ'כיה KAMIQ 2023 29/08/2026 17:20:58
7463139 מרצדס ארהב" GLE350D 4MATIC 2017 29/08/2026 17:20:53
74477201 סיאט ספרד LEON 2019 29/08/2026 17:20:52
31188001 סקניה-שוודיה - 2023 29/08/2026 17:20:51
74918201 סקודה צ'כיה OCTAVIA 2019 29/08/2026 17:20:50
76321203 בי ווי די סין ATTO 3 2024 29/08/2026 17:20:49
45113303 סוזוקי הונגריה VITARA 2023 29/08/2026 17:20:49
9736159 הונדה טורקיה CIVIC 2006 29/08/2026 17:20:45
8311639 יונדאי צ'כיה TUCSON 2016 29/08/2026 17:20:44
3332110 פיג'ו צרפת 406 2001 29/08/2026 17:20:44
54540402 מרצדס הונגריה AMG A35 2021 29/08/2026 17:20:44
81877802 קיה קוריאה הדרומית PICANTO 2022 29/08/2026 17:20:43
8529278 סיטרואן צרפת C4 2012 29/08/2026 17:20:41
1148828 ימהה יפן - 2016 29/08/2026 17:20:39
9675679 מרצדס בנץ גרמנ - 2016 29/08/2026 17:20:39
59869003 רנו קוריאה הדרומית KOLEOS 2024 29/08/2026 17:20:37
6164934 סוזוקי הונגריה SWIFT 2015 29/08/2026 17:20:35
71592801 ב מ וו גרמניה 530E I PER 2019 29/08/2026 17:20:35
2403212 סקודה צ'כיה SUPERB 2013 29/08/2026 17:20:34
6450586 טויוטה טורקיה C-HR HYBRID 2017 29/08/2026 17:20:30
55033401 מרצדס גרמניה E350E 2018 29/08/2026 17:20:29
3070466 מיצובישי יפן LANCER 2008 29/08/2026 17:20:29
6955627 מזדה יפן 323 LANTIS 1999 29/08/2026 17:20:27
75384401 מרוטי סוזוקי הודו BALENO 2019 29/08/2026 17:20:25
74214101 אודי מקסיקו Q5 2019 29/08/2026 17:20:25
2796938 אאודי בלגיה A1 2016 29/08/2026 17:20:24
60242102 סיאט ספרד IBIZA 2021 29/08/2026 17:20:23
4194729 ניסאן ספרד LARGO 2000 29/08/2026 17:20:22
9132327 יגואר בריטניה יגואר אנגליה 4 דלת' 1997 29/08/2026 17:20:20
8002732 רובר בריטניה DISCOVERY SPORT 2015 29/08/2026 17:20:19
54616202 יונדאי טורקיה I10 2021 29/08/2026 17:20:19
66899404 גילי סין EX5 2026 29/08/2026 17:20:19
2877433 ניסאן ספרד NV200 2015 29/08/2026 17:20:17
1636064 פורד ספרד FOCUS 2008 29/08/2026 17:20:15
3280454 ניסאן בריטניה QASHQAI 2014 29/08/2026 17:20:13
65066604 מ.ג סין CYBERSTER 2026 29/08/2026 17:20:12
4188871 מזדה יפן MAZDA 3 2011 29/08/2026 17:20:09
1194166 שברולט קוריאה הדרומית OPTRA 2008 29/08/2026 17:20:07
9819527 טויוטה יפן HILUX 2000 29/08/2026 17:20:05
33355504 ב מ וו גרמניה M3 CS 2024 29/08/2026 17:20:05
4709031 יונדאי קוריאה הדרומית I35 2014 29/08/2026 17:20:04
4177723 מזדה יפן LANTIS 323 2000 29/08/2026 17:20:04
87601401 מרצדס בנץ אוסטריה AMG G 63 2020 29/08/2026 17:20:03
4628930 טויוטה יפן LAND CRUISER 2014 29/08/2026 17:20:00
5752987 וולבו שבדיה - 2019 29/08/2026 17:19:59
4176356 סיאט ספרד IBIZA 2004 29/08/2026 17:19:58
1311615 ביפל טורקיה - 2001 29/08/2026 17:19:57
1586754 ניסאן בריטניה JUKE 2014 29/08/2026 17:19:55
12184904 ג'אקו סין JAECOO 7 PHEV 2024 29/08/2026 17:19:54
5944016 ב מ וו ארהב" X5 3.0D 2008 29/08/2026 17:19:54
52964801 יונדאי קוריאה הדרומית IONIQ HYBRID 2018 29/08/2026 17:19:53
33903902 איווייס סין U5 2021 29/08/2026 17:19:53
1665676 ב מ וו גרמניה 316I 2013 29/08/2026 17:19:52
3599872 שברולט ארהב" TRAVERSE 2010 29/08/2026 17:19:51
12906604 עובדיה נגררים - 2025 29/08/2026 17:19:51
37530202 פולקסווגן ספרד POLO 2021 29/08/2026 17:19:50
26294203 גילי סין GEOMETRY C 2022 29/08/2026 17:19:50
62256403 זונגטונג סין - 2024 29/08/2026 17:19:50
85237102 גילי סין GEOMETRY C 2022 29/08/2026 17:19:49
1225239 פיאט פולין FIAT 500 1.2 2016 29/08/2026 17:19:49
54485701 יונדאי קוריאה הדרומית IONIQ HYBRID 2019 29/08/2026 17:19:48
45206002 מזדה יפן CX-5 2021 29/08/2026 17:19:48
43241404 טויוטה יפן COROLLA CROSS 2025 29/08/2026 17:19:47
25491801 שברולט קוריאה הדרומית TRAX 2018 29/08/2026 17:19:45
45260002 ב מ וו ארהב" X6 XDRIVE30D 2022 29/08/2026 17:19:45
9155569 מרצדס בנץ ארהב - 2008 29/08/2026 17:19:45
7006970 הונדה בריטניה CIVIC 2010 29/08/2026 17:19:43
1906974 סיטרואן צרפת C3 2011 29/08/2026 17:19:39
36079903 סרס סין SERES 3 2023 29/08/2026 17:19:38
6162965 פורד ספרד FOCUS 2008 29/08/2026 17:19:37
13904901 סאנגיונג קוריאה הדרומית REXTON 2018 29/08/2026 17:19:35
6450586 טויוטה טורקיה C-HR HYBRID 2017 29/08/2026 17:19:33
6890265 מזדה יפן MAZDA 2 2008 29/08/2026 17:19:33
64651302 קיה סלובקיה SPORTAGE 2021 29/08/2026 17:19:32
5096360 פיאט איטליה PUNT0 60 2006 29/08/2026 17:19:31
57451903 מיצובישי יפן OUTLANDER 2024 29/08/2026 17:19:31
45206002 מזדה יפן CX-5 2021 29/08/2026 17:19:30
45260002 ב מ וו ארהב" X6 XDRIVE30D 2022 29/08/2026 17:19:30
1029272 דייהטסו יפן TERIOS 2009 29/08/2026 17:19:29
18731004 ב מ וו סין COOPER SE 2025 29/08/2026 17:19:29
74477201 סיאט ספרד LEON 2019 29/08/2026 17:19:27
14593803 טויוטה יפן LAND CRUISER 2022 29/08/2026 17:19:26
52964801 יונדאי קוריאה הדרומית IONIQ HYBRID 2018 29/08/2026 17:19:24
7350739 מרצדס גרמניה S500 LONG 2016 29/08/2026 17:19:20
1422213 סיטרואן צרפת C4 2006 29/08/2026 17:19:18
11193603 יונדאי קוריאה הדרומית KONA 2022 29/08/2026 17:19:17
39567401 סיאט ספרד LEON 2018 29/08/2026 17:19:17
1599811 יונדאי קוריאה הדרומית I35 2013 29/08/2026 17:19:16
60817301 ב מ וו ארהב" X5 XDRIVE45E 2020 29/08/2026 17:19:15
4711361 מזדה יפן MAZDA 3 2007 29/08/2026 17:19:14
5473713 קרייזלר מקסיקו JOURNEY 2012 29/08/2026 17:19:13
3309375 איסוזו תאילנד PICK-UP 2011 29/08/2026 17:19:11
48158801 שברולט ארהב" TRAVERSE 2019 29/08/2026 17:19:08
14998103 טויוטה טורקיה COROLLA SEDAN 2022 29/08/2026 17:19:07
1165762 טויוטה יפן COROLLA 2007 29/08/2026 17:19:06
9199884 סוזוקי הונגריה SX4 CROSSOVER 2016 29/08/2026 17:19:06
45260002 ב מ וו ארהב" X6 XDRIVE30D 2022 29/08/2026 17:19:05
45260002 ב מ וו ארהב" X6 XDRIVE30D 2022 29/08/2026 17:19:05
1275063 הונדה יפן CIVIC 2007 29/08/2026 17:19:04
26763101 אופל ספרד CORSA 2018 29/08/2026 17:19:03
16428203 מיצובישי תאילנד SPACE STAR 2022 29/08/2026 17:19:01
9830479 טויוטה תאילנד HILUX VIGO 2010 29/08/2026 17:19:01
6450586 טויוטה טורקיה C-HR HYBRID 2017 29/08/2026 17:19:01
77415802 ג'יפ ארהב" WRANGLER UNLIM 2022 29/08/2026 17:19:00
3653030 ב מ וו גרמניה 530I 2017 29/08/2026 17:18:59
89161102 סיאט ספרד ARONA 2022 29/08/2026 17:18:59
80106102 שברולט ארהב" - 2022 29/08/2026 17:18:58
4657159 יונדאי קוריאה הדרומית ELANTRA 2005 29/08/2026 17:18:57
8574368 מזדה יפן MAZDA 3 2010 29/08/2026 17:18:55
41915101 קיה קוריאה הדרומית NIRO 2018 29/08/2026 17:18:54
5690226 יונדאי קוריאה הדרומית ELANTRA HEV 2023 29/08/2026 17:18:53
2937066 יונדאי טורקיה ACCENT 2008 29/08/2026 17:18:51
3511676 מיצובישי יפן LANCER 2011 29/08/2026 17:18:49
69592603 פורד ארהב" - 2024 29/08/2026 17:18:48
1143062 טויוטה יפן COROLLA 2007 29/08/2026 17:18:47
26487302 סאן יאנג סין - 2020 29/08/2026 17:18:45
51051401 מיצובישי יפן OUTLANDER 2018 29/08/2026 17:18:45
3306131 יונדאי טורקיה I10 2014 29/08/2026 17:18:44
4412711 יונדאי צ'כיה I30 2013 29/08/2026 17:18:44
74794601 סיאט ספרד ARONA 2019 29/08/2026 17:18:43
12455801 לקסוס יפן LEXUS CT200H 2018 29/08/2026 17:18:41
54485701 יונדאי קוריאה הדרומית IONIQ HYBRID 2019 29/08/2026 17:18:39
51568302 שברולט ארהב" - 2021 29/08/2026 17:18:38
39540201 בנלי איטליה - 2018 29/08/2026 17:18:37
49977002 מרצדס גרמניה E200 2021 29/08/2026 17:18:35
1252866 שברולט ארהב" MALIBU LT 2009 29/08/2026 17:18:34
78885601 הונדה יפן HR-V 2020 29/08/2026 17:18:33
1301661 שברולט קוריאה הדרומית AVEO 2007 29/08/2026 17:18:31
85807201 איווקו ספרד - 2021 29/08/2026 17:18:31
6450586 טויוטה טורקיה C-HR HYBRID 2017 29/08/2026 17:18:30
3566574 טויוטה טורקיה AURIS 2011 29/08/2026 17:18:30
45260002 ב מ וו ארהב" X6 XDRIVE30D 2022 29/08/2026 17:18:29
41341703 הונדה הודו HONDA CITY 2023 29/08/2026 17:18:29
38626102 טויוטה טורקיה COROLLA HSD SDN 2021 29/08/2026 17:18:27
1071568 סוזוקי יפן JIMNY 2009 29/08/2026 17:18:24
8198124 מיצובישי יפן PAJERO 2001 29/08/2026 17:18:23
52964801 יונדאי קוריאה הדרומית IONIQ HYBRID 2018 29/08/2026 17:18:22
8817384 אקסיס טיוואן - 2017 29/08/2026 17:18:21
1902027 קיה קוריאה פרייד 1997 29/08/2026 17:18:19
7057273 סקודה צ'כיה FABIA 2011 29/08/2026 17:18:18
85867301 רנו טורקיה MEGANE 2019 29/08/2026 17:18:18
33587504 טויוטה תאילנד HILUX 2025 29/08/2026 17:18:17
59416902 סוזוקי הונגריה VITARA 2021 29/08/2026 17:18:14
1612370 קואנג יאנג טיו - 2010 29/08/2026 17:18:14
4458476 מיצובישי יפן LANCER 2011 29/08/2026 17:18:13
8643381 טויוטה בריטניה AURIS HYBRID 2016 29/08/2026 17:18:09
1182962 ניסאן בריטניה MICRA 2007 29/08/2026 17:18:08
4196158 קיה קוריאה הדרומית CARNIVAL 2005 29/08/2026 17:18:07
62256403 זונגטונג סין - 2024 29/08/2026 17:18:07
10749804 טסלה גרמניה MODEL Y 2024 29/08/2026 17:18:05
45206002 מזדה יפן CX-5 2021 29/08/2026 17:18:05
37530202 פולקסווגן ספרד POLO 2021 29/08/2026 17:18:04
6304478 יונדאי קוריאה הדרומית I25 2011 29/08/2026 17:18:04
22258201 סוזוקי הונגריה SX4 CROSSOVER 2017 29/08/2026 17:18:03
8235168 מזדה יפן MAZDA 5 2010 29/08/2026 17:18:01
84819102 פיאט איטליה FIAT 500 2022 29/08/2026 17:17:59
וואטסאפ